createdAt,value
2018-09-08T00:01:15.632Z,11.10
2018-09-08T00:03:44.966Z,11.10
2018-09-08T00:06:14.705Z,11.10
2018-09-08T00:08:44.933Z,11.10
2018-09-08T00:11:14.901Z,11.10
2018-09-08T00:13:44.238Z,11.10
2018-09-08T00:16:18.638Z,11.00
2018-09-08T00:18:52.798Z,11.00
2018-09-08T00:21:34.611Z,11.00
2018-09-08T00:24:08.916Z,11.10
2018-09-08T00:26:38.735Z,11.10
2018-09-08T00:29:18.867Z,11.10
2018-09-08T00:31:48.615Z,11.10
2018-09-08T00:34:17.843Z,11.10
2018-09-08T00:36:47.490Z,11.10
2018-09-08T00:39:18.767Z,11.00
2018-09-08T00:41:49.465Z,11.00
2018-09-08T00:44:19.443Z,10.90
2018-09-08T00:46:48.819Z,10.80
2018-09-08T00:49:24.010Z,10.80
2018-09-08T00:52:02.331Z,10.80
2018-09-08T00:57:22.317Z,10.80
2018-09-08T01:00:00.939Z,10.70
2018-09-08T01:02:37.557Z,10.70
2018-09-08T01:10:38.571Z,10.50
2018-09-08T01:13:14.958Z,10.50
2018-09-08T01:15:54.577Z,10.50
2018-09-08T01:18:30.684Z,10.40
2018-09-08T01:21:10.349Z,10.30
2018-09-08T01:23:57.682Z,10.30
2018-09-08T01:26:31.695Z,10.20
2018-09-08T01:29:06.644Z,10.10
2018-09-08T01:34:52.460Z,10.00
2018-09-08T01:40:14.801Z,9.90
2018-09-08T01:42:43.595Z,9.80
2018-09-08T01:45:12.368Z,9.80
2018-09-08T01:47:41.763Z,9.80
2018-09-08T01:50:10.476Z,9.80
2018-09-08T01:52:39.270Z,9.80
2018-09-08T01:55:08.039Z,9.80
2018-09-08T01:57:36.838Z,9.70
2018-09-08T02:00:06.494Z,9.70
2018-09-08T02:02:35.268Z,9.70
2018-09-08T02:05:04.058Z,9.70
2018-09-08T02:07:32.829Z,9.70
2018-09-08T02:10:01.582Z,9.80
2018-09-08T02:12:30.343Z,9.80
2018-09-08T02:14:59.117Z,9.90
2018-09-08T02:17:27.889Z,10.00
2018-09-08T02:19:56.648Z,10.00
2018-09-08T02:22:25.545Z,10.10
2018-09-08T02:24:54.536Z,10.10
2018-09-08T02:27:23.313Z,10.20
2018-09-08T02:29:52.053Z,10.20
2018-09-08T02:32:20.860Z,10.20
2018-09-08T02:34:49.615Z,10.20
2018-09-08T02:37:18.501Z,10.20
2018-09-08T02:39:47.212Z,10.10
2018-09-08T02:42:16.054Z,10.00
2018-09-08T02:44:44.932Z,9.90
2018-09-08T02:47:13.731Z,9.80
2018-09-08T02:49:53.814Z,9.80
2018-09-08T02:52:21.306Z,9.80
2018-09-08T02:54:48.812Z,9.80
2018-09-08T02:57:16.339Z,9.80
2018-09-08T02:59:43.874Z,9.70
2018-09-08T03:02:11.369Z,9.60
2018-09-08T03:04:38.867Z,9.60
2018-09-08T03:07:14.983Z,9.50
2018-09-08T03:09:44.913Z,9.50
2018-09-08T03:12:12.438Z,9.50
2018-09-08T03:14:39.934Z,9.50
2018-09-08T03:17:08.250Z,9.40
2018-09-08T03:19:35.769Z,9.40
2018-09-08T03:22:03.286Z,9.40
2018-09-08T03:24:30.839Z,9.40
2018-09-08T03:26:58.344Z,9.40
2018-09-08T03:29:25.882Z,9.40
2018-09-08T03:31:53.392Z,9.40
2018-09-08T03:34:20.896Z,9.40
2018-09-08T03:36:48.451Z,9.40
2018-09-08T03:39:16.012Z,9.30
2018-09-08T03:41:43.554Z,9.30
2018-09-08T03:44:11.110Z,9.30
2018-09-08T03:46:38.968Z,9.30
2018-09-08T03:49:06.549Z,9.30
2018-09-08T03:51:34.065Z,9.30
2018-09-08T03:54:01.641Z,9.30
2018-09-08T03:56:29.164Z,9.40
2018-09-08T03:58:56.807Z,9.40
2018-09-08T04:01:24.304Z,9.40
2018-09-08T04:03:53.350Z,9.40
2018-09-08T04:06:22.308Z,10.10
2018-09-08T04:08:51.182Z,9.30
2018-09-08T04:11:20.215Z,9.30
2018-09-08T04:13:49.618Z,9.20
2018-09-08T04:16:18.828Z,9.20
2018-09-08T04:18:47.993Z,9.10
2018-09-08T04:21:17.034Z,9.20
2018-09-08T04:23:45.992Z,9.10
2018-09-08T04:26:14.946Z,9.20
2018-09-08T04:28:44.131Z,9.20
2018-09-08T04:31:13.180Z,9.20
2018-09-08T04:33:42.107Z,9.20
2018-09-08T04:36:11.171Z,9.20
2018-09-08T04:38:40.089Z,9.20
2018-09-08T04:41:08.599Z,9.20
2018-09-08T04:43:37.635Z,9.20
2018-09-08T04:46:06.849Z,9.20
2018-09-08T04:48:35.804Z,9.20
2018-09-08T04:51:04.641Z,9.20
2018-09-08T04:53:33.719Z,9.20
2018-09-08T04:56:02.675Z,9.10
2018-09-08T04:58:31.734Z,9.20
2018-09-08T05:01:00.681Z,9.20
2018-09-08T05:03:29.783Z,9.20
2018-09-08T05:05:59.056Z,9.30
2018-09-08T05:08:28.165Z,9.30
2018-09-08T05:10:57.189Z,9.30
2018-09-08T05:13:26.017Z,9.40
2018-09-08T05:15:54.922Z,9.40
2018-09-08T05:18:23.755Z,9.50
2018-09-08T05:20:52.607Z,9.60
2018-09-08T05:23:21.457Z,9.70
2018-09-08T05:25:50.382Z,9.80
2018-09-08T05:28:19.298Z,10.00
2018-09-08T05:30:48.232Z,10.10
2018-09-08T05:33:17.101Z,10.20
2018-09-08T05:35:45.998Z,10.20
2018-09-08T05:38:14.797Z,10.30
2018-09-08T05:40:43.651Z,10.30
2018-09-08T05:43:12.572Z,10.40
2018-09-08T05:45:41.332Z,10.50
2018-09-08T05:48:10.065Z,10.80
2018-09-08T05:50:38.920Z,11.30
2018-09-08T05:53:09.406Z,11.90
2018-09-08T05:55:38.450Z,12.30
2018-09-08T05:58:07.571Z,12.50
2018-09-08T06:00:36.464Z,12.30
2018-09-08T06:03:06.126Z,12.20
2018-09-08T06:05:36.713Z,12.30
2018-09-08T06:08:08.394Z,12.40
2018-09-08T06:10:38.039Z,12.40
2018-09-08T06:13:07.227Z,12.70
2018-09-08T06:15:36.717Z,12.90
2018-09-08T06:18:09.191Z,13.10
2018-09-08T06:20:39.085Z,13.00
2018-09-08T06:23:08.847Z,13.00
2018-09-08T06:25:38.901Z,13.10
2018-09-08T06:28:08.715Z,13.80
2018-09-08T06:30:38.009Z,14.90
2018-09-08T06:33:07.165Z,15.70
2018-09-08T06:35:37.070Z,16.50
2018-09-08T06:38:06.182Z,17.20
2018-09-08T06:40:37.678Z,17.60
2018-09-08T06:43:11.935Z,17.60
2018-09-08T06:45:41.455Z,18.10
2018-09-08T06:48:18.920Z,17.90
2018-09-08T06:50:54.604Z,18.80
2018-09-08T06:53:23.814Z,19.80
2018-09-08T06:55:54.187Z,20.20
2018-09-08T06:58:23.706Z,20.20
2018-09-08T07:00:53.172Z,20.00
2018-09-08T07:03:22.196Z,19.60
2018-09-08T07:05:51.175Z,19.00
2018-09-08T07:08:20.153Z,18.50
2018-09-08T07:10:49.336Z,17.70
2018-09-08T07:13:19.383Z,17.10
2018-09-08T07:15:48.478Z,17.30
2018-09-08T07:18:18.529Z,18.30
2018-09-08T07:20:48.369Z,19.20
2018-09-08T07:23:17.974Z,20.00
2018-09-08T07:25:50.929Z,20.30
2018-09-08T07:28:21.051Z,20.60
2018-09-08T07:30:51.149Z,20.50
2018-09-08T07:33:22.042Z,19.60
2018-09-08T07:35:52.848Z,19.00
2018-09-08T07:38:25.224Z,18.70
2018-09-08T07:40:59.483Z,19.00
2018-09-08T07:43:30.366Z,19.30
2018-09-08T07:46:00.079Z,19.30
2018-09-08T07:48:44.503Z,20.10
2018-09-08T07:51:18.953Z,19.70
2018-09-08T07:56:48.183Z,19.40
2018-09-08T07:59:18.993Z,19.50
2018-09-08T08:01:59.964Z,19.60
2018-09-08T08:04:42.001Z,20.30
2018-09-08T08:07:16.311Z,21.60
2018-09-08T08:09:47.782Z,22.50
2018-09-08T08:12:23.270Z,23.60
2018-09-08T08:14:56.541Z,23.50
2018-09-08T08:20:10.530Z,24.70
2018-09-08T08:22:46.021Z,25.20
2018-09-08T08:25:16.562Z,25.40
2018-09-08T08:27:53.475Z,24.80
2018-09-08T08:30:31.033Z,25.40
2018-09-08T08:33:00.794Z,25.60
2018-09-08T08:35:41.390Z,25.00
2018-09-08T08:38:20.995Z,25.60
2018-09-08T08:41:04.952Z,26.30
2018-09-08T08:46:32.137Z,28.30
2018-09-08T08:49:12.747Z,27.50
2018-09-08T08:54:37.390Z,26.90
2018-09-08T08:57:12.350Z,28.40
2018-09-08T08:59:45.096Z,27.10
2018-09-08T09:02:34.208Z,26.00
2018-09-08T09:05:05.377Z,25.70
2018-09-08T09:07:42.026Z,25.90
2018-09-08T09:10:12.840Z,25.80
2018-09-08T09:12:52.137Z,26.20
2018-09-08T09:15:22.122Z,25.70
2018-09-08T09:17:51.298Z,25.70
2018-09-08T09:20:31.143Z,25.80
2018-09-08T09:25:17.157Z,25.90
2018-09-08T09:27:52.167Z,25.80
2018-09-08T09:30:26.649Z,26.70
2018-09-08T09:32:57.860Z,27.20
2018-09-08T09:35:36.388Z,26.90
2018-09-08T09:38:14.355Z,26.60
2018-09-08T09:40:54.228Z,26.80
2018-09-08T09:43:25.217Z,28.60
2018-09-08T09:45:56.482Z,28.60
2018-09-08T09:48:27.358Z,28.10
2018-09-08T09:51:02.580Z,27.30
2018-09-08T09:53:31.895Z,26.70
2018-09-08T09:56:03.395Z,25.90
2018-09-08T09:58:32.791Z,25.90
2018-09-08T10:01:11.524Z,27.10
2018-09-08T10:03:41.801Z,27.80
2018-09-08T10:06:10.398Z,28.80
2018-09-08T10:08:38.966Z,30.00
2018-09-08T10:11:07.599Z,29.50
2018-09-08T10:13:36.278Z,28.70
2018-09-08T10:16:04.915Z,29.50
2018-09-08T10:18:33.639Z,29.10
2018-09-08T10:21:02.302Z,29.30
2018-09-08T10:23:31.273Z,31.10
2018-09-08T10:25:59.860Z,31.10
2018-09-08T10:28:28.953Z,31.90
2018-09-08T10:30:57.265Z,31.80
2018-09-08T10:33:25.946Z,32.00
2018-09-08T10:35:54.575Z,29.00
2018-09-08T10:38:23.247Z,28.40
2018-09-08T10:40:51.919Z,28.00
2018-09-08T10:43:21.861Z,28.70
2018-09-08T10:45:50.558Z,28.80
2018-09-08T10:48:19.316Z,28.10
2018-09-08T10:50:51.058Z,29.70
2018-09-08T10:53:20.188Z,30.70
2018-09-08T10:55:48.816Z,31.20
2018-09-08T10:58:17.387Z,29.00
2018-09-08T11:00:45.972Z,29.70
2018-09-08T11:03:17.075Z,30.50
2018-09-08T11:05:45.671Z,28.70
2018-09-08T11:08:14.635Z,27.70
2018-09-08T11:10:43.323Z,25.90
2018-09-08T11:13:11.964Z,26.10
2018-09-08T11:15:40.647Z,24.80
2018-09-08T11:18:10.390Z,25.40
2018-09-08T11:20:38.962Z,27.70
2018-09-08T11:23:08.559Z,27.80
2018-09-08T11:25:37.176Z,27.50
2018-09-08T11:28:06.747Z,27.50
2018-09-08T11:30:36.093Z,28.60
2018-09-08T11:33:05.005Z,27.40
2018-09-08T11:35:33.671Z,28.00
2018-09-08T11:38:02.401Z,28.00
2018-09-08T11:40:31.105Z,28.70
2018-09-08T11:42:59.764Z,28.80
2018-09-08T11:45:28.455Z,27.60
2018-09-08T11:47:57.169Z,26.40
2018-09-08T11:50:25.945Z,26.10
2018-09-08T11:52:54.625Z,25.50
2018-09-08T11:55:23.437Z,25.60
2018-09-08T11:57:52.006Z,26.30
2018-09-08T12:00:23.766Z,27.30
2018-09-08T12:02:52.408Z,28.40
2018-09-08T12:05:20.941Z,30.40
2018-09-08T12:07:50.168Z,32.00
2018-09-08T12:10:18.827Z,32.60
2018-09-08T12:12:47.435Z,31.00
2018-09-08T12:15:16.148Z,30.00
2018-09-08T12:17:45.048Z,31.30
2018-09-08T12:20:13.689Z,31.10
2018-09-08T12:22:42.258Z,29.30
2018-09-08T12:25:28.980Z,29.90
2018-09-08T12:27:57.839Z,29.00
2018-09-08T12:30:26.510Z,26.70
2018-09-08T12:32:55.108Z,25.70
2018-09-08T12:35:23.806Z,26.20
2018-09-08T12:37:52.474Z,27.40
2018-09-08T12:40:21.137Z,27.80
2018-09-08T12:42:49.823Z,29.60
2018-09-08T12:45:18.467Z,31.00
2018-09-08T12:47:47.138Z,30.50
2018-09-08T12:50:15.751Z,29.30
2018-09-08T12:52:44.332Z,29.30
2018-09-08T12:55:12.876Z,30.00
2018-09-08T12:57:41.509Z,30.20
2018-09-08T13:00:10.232Z,30.70
2018-09-08T13:02:38.897Z,29.60
2018-09-08T13:05:07.679Z,29.40
2018-09-08T13:07:36.258Z,29.10
2018-09-08T13:10:05.056Z,28.90
2018-09-08T13:12:33.724Z,28.80
2018-09-08T13:15:02.679Z,28.90
2018-09-08T13:17:31.221Z,30.40
2018-09-08T13:19:59.781Z,30.10
2018-09-08T13:22:28.327Z,29.50
2018-09-08T13:24:57.415Z,28.60
2018-09-08T13:27:25.971Z,28.40
2018-09-08T13:29:54.512Z,28.50
2018-09-08T13:32:23.051Z,28.30
2018-09-08T13:34:51.697Z,28.00
2018-09-08T13:37:20.763Z,27.90
2018-09-08T13:39:49.438Z,28.80
2018-09-08T13:42:18.079Z,28.50
2018-09-08T13:44:46.605Z,28.40
2018-09-08T13:47:15.183Z,28.50
2018-09-08T13:49:43.687Z,28.70
2018-09-08T13:52:12.224Z,29.30
2018-09-08T13:54:40.707Z,29.60
2018-09-08T13:57:09.330Z,28.70
2018-09-08T13:59:37.807Z,28.00
2018-09-08T14:02:06.412Z,28.00
2018-09-08T14:04:34.887Z,27.70
2018-09-08T14:07:03.407Z,26.90
2018-09-08T14:09:31.956Z,26.70
2018-09-08T14:12:00.505Z,26.70
2018-09-08T14:14:29.019Z,26.50
2018-09-08T14:16:57.612Z,25.90
2018-09-08T14:19:26.098Z,25.80
2018-09-08T14:21:54.636Z,25.70
2018-09-08T14:24:23.148Z,25.30
2018-09-08T14:26:51.678Z,24.90
2018-09-08T14:29:20.237Z,24.90
2018-09-08T14:31:48.821Z,24.90
2018-09-08T14:34:17.342Z,24.50
2018-09-08T14:36:45.938Z,24.20
2018-09-08T14:39:14.505Z,24.20
2018-09-08T14:41:43.080Z,24.20
2018-09-08T14:44:11.623Z,24.30
2018-09-08T14:46:40.341Z,24.30
2018-09-08T14:49:08.991Z,24.40
2018-09-08T14:51:37.548Z,24.10
2018-09-08T14:54:06.155Z,23.90
2018-09-08T14:56:34.732Z,23.60
2018-09-08T14:59:03.326Z,23.50
2018-09-08T15:01:31.942Z,23.50
2018-09-08T15:04:00.489Z,23.70
2018-09-08T15:06:29.055Z,23.50
2018-09-08T15:08:57.604Z,23.30
2018-09-08T15:11:26.156Z,23.20
2018-09-08T15:13:54.683Z,23.00
2018-09-08T15:16:23.264Z,22.90
2018-09-08T15:18:51.811Z,22.50
2018-09-08T15:21:20.379Z,22.40
2018-09-08T15:23:48.939Z,22.30
2018-09-08T15:26:17.487Z,22.20
2018-09-08T15:28:46.033Z,22.20
2018-09-08T15:31:14.599Z,22.10
2018-09-08T15:33:43.131Z,22.00
2018-09-08T15:36:12.504Z,21.80
2018-09-08T15:38:41.071Z,21.70
2018-09-08T15:41:09.561Z,21.60
2018-09-08T15:43:38.107Z,21.50
2018-09-08T15:46:06.651Z,21.40
2018-09-08T15:48:35.180Z,21.20
2018-09-08T15:51:03.699Z,21.00
2018-09-08T15:53:32.280Z,20.80
2018-09-08T15:56:00.795Z,20.80
2018-09-08T15:58:29.987Z,20.60
2018-09-08T16:00:58.435Z,20.40
2018-09-08T16:03:26.991Z,20.30
2018-09-08T16:05:55.509Z,20.10
2018-09-08T16:08:24.055Z,20.10
2018-09-08T16:10:52.618Z,19.90
2018-09-08T16:13:21.135Z,19.90
2018-09-08T16:15:49.689Z,19.80
2018-09-08T16:18:18.305Z,19.70
2018-09-08T16:20:46.816Z,19.60
2018-09-08T16:23:15.358Z,19.50
2018-09-08T16:25:43.902Z,19.40
2018-09-08T16:28:12.439Z,19.30
2018-09-08T16:30:41.363Z,19.10
2018-09-08T16:33:09.993Z,19.10
2018-09-08T16:35:38.622Z,19.10
2018-09-08T16:38:07.238Z,19.10
2018-09-08T16:40:35.871Z,19.00
2018-09-08T16:43:04.459Z,19.00
2018-09-08T16:45:33.042Z,18.90
2018-09-08T16:48:01.640Z,18.80
2018-09-08T16:50:30.235Z,18.80
2018-09-08T16:52:58.869Z,18.70
2018-09-08T16:55:27.544Z,18.70
2018-09-08T16:57:56.164Z,18.60
2018-09-08T17:00:24.829Z,18.50
2018-09-08T17:02:53.456Z,18.40
2018-09-08T17:05:22.112Z,18.30
2018-09-08T17:07:50.670Z,18.20
2018-09-08T17:10:19.295Z,18.10
2018-09-08T17:12:47.984Z,18.00
2018-09-08T17:15:16.627Z,17.90
2018-09-08T17:17:45.412Z,17.70
2018-09-08T17:20:14.159Z,17.60
2018-09-08T17:22:43.135Z,17.50
2018-09-08T17:25:11.865Z,17.40
2018-09-08T17:27:40.509Z,17.20
2018-09-08T17:30:09.126Z,17.10
2018-09-08T17:32:37.782Z,17.00
2018-09-08T17:35:06.640Z,16.90
2018-09-08T17:37:35.597Z,16.70
2018-09-08T17:40:04.312Z,16.70
2018-09-08T17:42:32.860Z,16.60
2018-09-08T17:45:01.547Z,16.40
2018-09-08T17:47:30.171Z,16.30
2018-09-08T17:49:58.831Z,16.20
2018-09-08T17:52:27.426Z,16.10
2018-09-08T17:54:56.037Z,16.00
2018-09-08T17:57:24.639Z,15.90
2018-09-08T17:59:53.190Z,15.80
2018-09-08T18:02:21.792Z,15.70
2018-09-08T18:04:50.476Z,15.70
2018-09-08T18:07:19.096Z,15.60
2018-09-08T18:09:47.929Z,15.60
2018-09-08T18:12:16.526Z,15.50
2018-09-08T18:14:45.185Z,15.50
2018-09-08T18:17:13.805Z,15.40
2018-09-08T18:19:42.424Z,15.40
2018-09-08T18:22:11.050Z,15.30
2018-09-08T18:24:39.680Z,15.20
2018-09-08T18:27:08.371Z,15.20
2018-09-08T18:29:37.027Z,15.10
2018-09-08T18:32:05.635Z,15.00
2018-09-08T18:34:34.245Z,15.00
2018-09-08T18:37:02.831Z,14.90
2018-09-08T18:39:31.396Z,14.90
2018-09-08T18:41:59.992Z,14.80
2018-09-08T18:44:28.643Z,14.80
2018-09-08T18:46:57.189Z,14.70
2018-09-08T18:49:25.721Z,14.60
2018-09-08T18:51:54.223Z,14.60
2018-09-08T18:54:22.803Z,14.50
2018-09-08T18:56:51.322Z,14.50
2018-09-08T18:59:19.847Z,14.40
2018-09-08T19:01:48.449Z,14.30
2018-09-08T19:04:16.935Z,14.30
2018-09-08T19:06:45.468Z,14.20
2018-09-08T19:09:14.003Z,14.20
2018-09-08T19:11:42.609Z,14.10
2018-09-08T19:14:15.336Z,14.00
2018-09-08T19:16:43.887Z,14.00
2018-09-08T19:19:12.459Z,13.90
2018-09-08T19:21:41.055Z,13.90
2018-09-08T19:25:14.489Z,13.80
2018-09-08T19:27:42.995Z,13.80
2018-09-08T19:30:11.569Z,13.70
2018-09-08T19:32:40.109Z,13.60
2018-09-08T19:35:14.073Z,13.60
2018-09-08T19:37:42.614Z,13.50
2018-09-08T19:40:16.491Z,13.40
2018-09-08T19:42:45.034Z,13.40
2018-09-08T19:45:13.556Z,13.30
2018-09-08T19:47:47.430Z,13.20
2018-09-08T19:50:15.975Z,13.20
2018-09-08T19:52:49.912Z,13.10
2018-09-08T19:55:18.499Z,13.00
2018-09-08T19:57:52.366Z,13.00
2018-09-08T20:00:20.920Z,13.00
2018-09-08T20:02:49.423Z,12.90
2018-09-08T20:05:17.938Z,12.80
2018-09-08T20:07:46.495Z,12.80
2018-09-08T20:10:15.004Z,12.80
2018-09-08T20:12:43.639Z,12.70
2018-09-08T20:15:12.146Z,12.60
2018-09-08T20:17:40.678Z,12.60
2018-09-08T20:20:09.203Z,12.50
2018-09-08T20:22:37.764Z,12.50
2018-09-08T20:25:06.311Z,12.40
2018-09-08T20:27:34.864Z,12.40
2018-09-08T20:30:03.479Z,12.30
2018-09-08T20:32:32.022Z,12.20
2018-09-08T20:35:00.555Z,12.20
2018-09-08T20:37:29.080Z,12.10
2018-09-08T20:39:57.753Z,12.10
2018-09-08T20:42:26.273Z,12.10
2018-09-08T20:44:54.768Z,12.00
2018-09-08T20:47:23.294Z,11.90
2018-09-08T20:49:52.104Z,11.90
2018-09-08T20:52:20.672Z,11.80
2018-09-08T20:54:49.159Z,11.70
2018-09-08T20:57:17.716Z,11.70
2018-09-08T20:59:46.227Z,11.60
2018-09-08T21:02:14.730Z,11.60
2018-09-08T21:04:43.254Z,11.50
2018-09-08T21:07:11.827Z,11.50
2018-09-08T21:09:40.854Z,11.50
2018-09-08T21:12:09.524Z,11.40
2018-09-08T21:15:00.466Z,11.40
2018-09-08T21:17:29.008Z,11.30
2018-09-08T21:19:57.502Z,11.30
2018-09-08T21:22:26.076Z,11.20
2018-09-08T21:24:54.595Z,11.20
2018-09-08T21:27:23.115Z,11.10
2018-09-08T21:29:51.632Z,11.10
2018-09-08T21:32:20.254Z,11.10
2018-09-08T21:34:48.807Z,11.00
2018-09-08T21:37:17.355Z,11.00
2018-09-08T21:39:45.910Z,11.00
2018-09-08T21:42:14.435Z,11.00
2018-09-08T21:44:42.992Z,11.00
2018-09-08T21:47:11.526Z,10.90
2018-09-08T21:49:40.084Z,10.90
2018-09-08T21:52:08.631Z,10.90
2018-09-08T21:54:37.199Z,10.80
2018-09-08T21:57:05.795Z,10.80
2018-09-08T21:59:34.347Z,10.80
2018-09-08T22:02:02.884Z,10.80
2018-09-08T22:04:31.462Z,10.70
2018-09-08T22:07:00.000Z,10.70
2018-09-08T22:09:28.581Z,10.70
2018-09-08T22:11:57.136Z,10.60
2018-09-08T22:14:25.699Z,10.60
2018-09-08T22:16:54.290Z,10.50
2018-09-08T22:19:22.872Z,10.50
2018-09-08T22:21:51.416Z,10.40
2018-09-08T22:24:19.994Z,10.40
2018-09-08T22:26:48.533Z,10.30
2018-09-08T22:29:17.130Z,10.30
2018-09-08T22:31:45.687Z,10.30
2018-09-08T22:34:14.242Z,10.20
2018-09-08T22:36:42.813Z,10.30
2018-09-08T22:39:11.388Z,10.30
2018-09-08T22:41:39.926Z,10.30
2018-09-08T22:44:08.464Z,10.20
2018-09-08T22:46:36.996Z,10.20
2018-09-08T22:49:06.287Z,10.20
2018-09-08T22:51:34.803Z,10.10
2018-09-08T22:54:03.379Z,10.10
2018-09-08T22:56:31.931Z,10.10
2018-09-08T22:59:00.499Z,10.00
2018-09-08T23:01:29.027Z,10.00
2018-09-08T23:03:57.603Z,10.00
2018-09-08T23:06:26.472Z,10.00
2018-09-08T23:08:55.040Z,10.00
2018-09-08T23:11:23.600Z,10.00
2018-09-08T23:13:53.072Z,9.90
2018-09-08T23:16:21.606Z,9.90
2018-09-08T23:18:50.157Z,9.90
2018-09-08T23:21:18.696Z,9.80
2018-09-08T23:23:47.261Z,9.70
2018-09-08T23:26:15.779Z,9.70
2018-09-08T23:28:44.290Z,9.70
2018-09-08T23:31:12.829Z,9.70
2018-09-08T23:33:41.304Z,9.70
2018-09-08T23:36:09.813Z,9.60
2018-09-08T23:38:38.325Z,9.60
2018-09-08T23:41:06.853Z,9.60
2018-09-08T23:43:35.346Z,9.60
2018-09-08T23:46:03.886Z,9.50
2018-09-08T23:48:32.393Z,9.50
2018-09-08T23:51:00.899Z,9.50
2018-09-08T23:53:29.383Z,9.40
2018-09-08T23:55:57.895Z,9.50
2018-09-08T23:58:26.398Z,9.40
